createdAt,value
2022-11-29T00:00:28.348Z,5.44
2022-11-29T00:03:29.810Z,5.41
2022-11-29T00:06:31.778Z,5.40
2022-11-29T00:09:33.138Z,5.42
2022-11-29T00:12:34.510Z,5.42
2022-11-29T00:15:36.745Z,5.42
2022-11-29T00:18:38.089Z,5.42
2022-11-29T00:21:39.441Z,5.42
2022-11-29T00:24:42.478Z,5.42
2022-11-29T00:27:44.100Z,5.43
2022-11-29T00:30:45.510Z,5.43
2022-11-29T00:33:47.007Z,5.40
2022-11-29T00:36:48.418Z,5.38
2022-11-29T00:39:49.823Z,5.37
2022-11-29T00:42:51.178Z,5.35
2022-11-29T00:45:52.587Z,5.34
2022-11-29T00:48:53.969Z,5.35
2022-11-29T00:51:55.405Z,5.32
2022-11-29T00:54:56.760Z,5.32
2022-11-29T00:57:58.162Z,5.30
2022-11-29T01:00:59.585Z,5.26
2022-11-29T01:04:01.268Z,5.24
2022-11-29T01:07:02.644Z,5.25
2022-11-29T01:10:04.187Z,5.26
2022-11-29T01:13:05.596Z,5.23
2022-11-29T01:16:07.161Z,5.22
2022-11-29T01:19:08.558Z,5.20
2022-11-29T01:22:09.934Z,5.19
2022-11-29T01:25:11.892Z,5.20
2022-11-29T01:28:13.249Z,5.22
2022-11-29T01:31:15.511Z,5.20
2022-11-29T01:34:16.921Z,5.19
2022-11-29T01:37:18.295Z,5.20
2022-11-29T01:40:19.633Z,5.19
2022-11-29T01:43:21.055Z,5.15
2022-11-29T01:46:22.483Z,5.15
2022-11-29T01:49:42.721Z,5.13
2022-11-29T01:52:44.074Z,5.14
2022-11-29T01:55:46.359Z,5.15
2022-11-29T01:58:48.022Z,5.13
2022-11-29T02:01:49.372Z,5.12
2022-11-29T02:04:50.724Z,5.12
2022-11-29T02:07:52.559Z,5.13
2022-11-29T02:11:05.469Z,5.14
2022-11-29T02:14:14.086Z,5.12
2022-11-29T02:17:30.790Z,5.10
2022-11-29T02:20:47.510Z,5.09
2022-11-29T02:23:58.377Z,5.10
2022-11-29T02:27:18.504Z,5.09
2022-11-29T02:30:21.621Z,5.07
2022-11-29T02:33:22.956Z,5.06
2022-11-29T02:36:40.322Z,5.05
2022-11-29T02:40:00.593Z,5.07
2022-11-29T02:43:09.010Z,5.06
2022-11-29T02:46:13.598Z,5.05
2022-11-29T02:49:14.954Z,5.07
2022-11-29T02:52:26.118Z,5.06
2022-11-29T02:55:34.981Z,5.05
2022-11-29T02:58:54.531Z,5.06
2022-11-29T03:02:02.546Z,5.02
2022-11-29T03:05:09.941Z,5.03
2022-11-29T03:08:20.716Z,5.00
2022-11-29T03:11:30.067Z,4.99
2022-11-29T03:14:51.698Z,5.00
2022-11-29T03:18:12.013Z,5.02
2022-11-29T03:21:22.616Z,5.02
2022-11-29T03:24:26.104Z,4.98
2022-11-29T03:27:46.464Z,5.01
2022-11-29T03:30:53.309Z,4.98
2022-11-29T03:33:54.690Z,4.99
2022-11-29T03:36:58.345Z,5.00
2022-11-29T03:40:01.084Z,4.98
2022-11-29T03:43:04.376Z,4.97
2022-11-29T03:46:10.938Z,4.96
2022-11-29T03:49:50.919Z,4.98
2022-11-29T03:52:53.513Z,4.97
2022-11-29T03:55:56.829Z,4.97
2022-11-29T03:59:12.337Z,4.96
2022-11-29T04:02:19.815Z,4.96
2022-11-29T04:05:27.207Z,4.95
2022-11-29T04:08:43.005Z,4.97
2022-11-29T04:11:59.864Z,4.96
2022-11-29T04:15:14.166Z,4.95
2022-11-29T04:18:19.819Z,4.96
2022-11-29T04:21:31.603Z,4.95
2022-11-29T04:24:45.142Z,4.95
2022-11-29T04:28:01.900Z,4.96
2022-11-29T04:31:03.236Z,4.93
2022-11-29T04:34:04.618Z,4.93
2022-11-29T04:37:24.519Z,4.93
2022-11-29T04:40:32.010Z,4.93
2022-11-29T04:43:53.312Z,4.95
2022-11-29T04:47:14.907Z,4.97
2022-11-29T04:50:21.797Z,4.98
2022-11-29T04:53:32.400Z,4.96
2022-11-29T04:56:41.295Z,4.97
2022-11-29T04:59:47.698Z,4.96
2022-11-29T05:02:59.307Z,4.96
2022-11-29T05:06:04.671Z,4.97
2022-11-29T05:09:23.363Z,4.98
2022-11-29T05:12:29.526Z,4.98
2022-11-29T05:15:43.192Z,4.99
2022-11-29T05:19:08.329Z,4.99
2022-11-29T05:22:09.690Z,4.96
2022-11-29T05:25:15.761Z,4.98
2022-11-29T05:28:33.916Z,4.99
2022-11-29T05:31:35.355Z,4.98
2022-11-29T05:34:40.294Z,4.97
2022-11-29T05:37:45.024Z,4.97
2022-11-29T05:40:51.731Z,4.96
2022-11-29T05:43:56.243Z,4.97
2022-11-29T05:47:10.169Z,4.95
2022-11-29T05:50:14.124Z,4.92
2022-11-29T05:53:19.226Z,4.92
2022-11-29T05:56:29.819Z,4.90
2022-11-29T05:59:31.270Z,4.89
2022-11-29T06:02:51.580Z,4.86
2022-11-29T06:05:54.625Z,4.85
2022-11-29T06:09:08.993Z,4.86
2022-11-29T06:12:18.256Z,4.85
2022-11-29T06:15:34.606Z,4.83
2022-11-29T06:18:39.052Z,4.80
2022-11-29T06:21:44.044Z,4.81
2022-11-29T06:24:56.778Z,4.83
2022-11-29T06:27:59.125Z,4.84
2022-11-29T06:31:03.475Z,4.85
2022-11-29T06:34:29.168Z,4.85
2022-11-29T06:37:37.130Z,4.87
2022-11-29T06:40:38.642Z,4.88
2022-11-29T06:43:40.155Z,4.90
2022-11-29T06:46:48.503Z,4.87
2022-11-29T06:50:08.942Z,4.87
2022-11-29T06:53:16.620Z,4.86
2022-11-29T06:56:21.047Z,4.85
2022-11-29T06:59:37.979Z,4.86
2022-11-29T07:02:44.687Z,4.85
2022-11-29T07:05:46.816Z,4.84
2022-11-29T07:08:49.460Z,4.85
2022-11-29T07:11:51.013Z,4.88
2022-11-29T07:14:52.545Z,4.88
2022-11-29T07:18:05.469Z,4.87
2022-11-29T07:21:26.369Z,4.89
2022-11-29T07:24:37.037Z,4.87
2022-11-29T07:27:41.700Z,4.88
2022-11-29T07:30:50.142Z,4.86
2022-11-29T07:33:59.544Z,4.87
2022-11-29T07:37:07.337Z,4.90
2022-11-29T07:40:13.587Z,4.92
2022-11-29T07:43:33.858Z,4.92
2022-11-29T07:46:35.286Z,4.93
2022-11-29T07:49:36.724Z,4.91
2022-11-29T07:52:38.166Z,4.93
2022-11-29T07:55:39.571Z,4.94
2022-11-29T07:58:44.175Z,4.95
2022-11-29T08:01:45.793Z,4.91
2022-11-29T08:04:47.621Z,4.92
2022-11-29T08:07:49.554Z,4.94
2022-11-29T08:10:50.955Z,4.97
2022-11-29T08:14:01.369Z,4.97
2022-11-29T08:17:02.784Z,4.97
2022-11-29T08:20:04.849Z,5.00
2022-11-29T08:23:06.296Z,5.02
2022-11-29T08:26:07.732Z,5.00
2022-11-29T08:29:09.359Z,5.01
2022-11-29T08:32:10.801Z,5.01
2022-11-29T08:35:12.246Z,5.00
2022-11-29T08:38:13.633Z,4.95
2022-11-29T08:41:15.545Z,4.98
2022-11-29T08:44:17.013Z,5.06
2022-11-29T08:47:36.836Z,5.07
2022-11-29T08:50:38.243Z,5.07
2022-11-29T08:53:42.678Z,5.09
2022-11-29T09:00:05.724Z,5.11
2022-11-29T09:03:25.969Z,5.16
2022-11-29T09:06:28.015Z,5.16
2022-11-29T09:09:29.461Z,5.17
2022-11-29T09:12:31.963Z,5.17
2022-11-29T09:15:33.341Z,5.21
2022-11-29T09:18:34.770Z,5.25
2022-11-29T09:21:36.877Z,5.25
2022-11-29T09:24:38.351Z,5.27
2022-11-29T09:27:41.767Z,5.31
2022-11-29T09:30:43.217Z,5.30
2022-11-29T09:33:45.615Z,5.33
2022-11-29T09:36:47.894Z,5.36
2022-11-29T09:39:49.257Z,5.39
2022-11-29T09:42:53.654Z,5.38
2022-11-29T09:46:13.020Z,5.41
2022-11-29T09:49:53.222Z,5.33
2022-11-29T09:53:13.431Z,5.35
2022-11-29T09:56:20.798Z,5.37
2022-11-29T09:59:32.507Z,5.39
2022-11-29T10:02:36.957Z,5.34
2022-11-29T10:05:41.128Z,5.34
2022-11-29T10:08:53.977Z,5.34
2022-11-29T10:12:01.041Z,5.33
2022-11-29T10:15:14.047Z,5.34
2022-11-29T10:18:27.560Z,5.31
2022-11-29T10:21:29.865Z,5.36
2022-11-29T10:24:31.460Z,5.34
2022-11-29T10:27:32.949Z,5.33
2022-11-29T10:30:34.352Z,5.35
2022-11-29T10:33:36.205Z,5.24
2022-11-29T10:36:41.946Z,5.26
2022-11-29T10:39:46.498Z,5.26
2022-11-29T10:42:53.269Z,5.26
2022-11-29T10:45:56.296Z,5.24
2022-11-29T10:48:58.377Z,5.26
2022-11-29T10:51:59.809Z,5.18
2022-11-29T10:55:01.222Z,5.27
2022-11-29T10:58:08.773Z,5.26
2022-11-29T11:01:11.779Z,5.23
2022-11-29T11:04:22.573Z,5.23
2022-11-29T11:07:28.830Z,5.26
2022-11-29T11:10:30.924Z,5.24
2022-11-29T11:13:32.402Z,5.31
2022-11-29T11:16:37.432Z,5.33
2022-11-29T11:19:39.234Z,5.25
2022-11-29T11:22:40.727Z,5.32
2022-11-29T11:25:42.111Z,5.34
2022-11-29T11:29:00.171Z,5.26
2022-11-29T11:32:01.553Z,5.24
2022-11-29T11:35:02.936Z,5.28
2022-11-29T11:38:04.359Z,5.31
2022-11-29T11:41:11.726Z,5.27
2022-11-29T11:44:45.719Z,5.33
2022-11-29T11:47:44.964Z,5.33
2022-11-29T11:50:49.316Z,5.31
2022-11-29T11:53:51.388Z,5.27
2022-11-29T11:56:52.785Z,5.34
2022-11-29T11:59:54.639Z,5.35
2022-11-29T12:02:56.098Z,5.33
2022-11-29T12:05:59.569Z,5.33
2022-11-29T12:09:03.984Z,5.34
2022-11-29T12:12:17.722Z,5.41
2022-11-29T12:15:20.234Z,5.43
2022-11-29T12:18:21.544Z,5.39
2022-11-29T12:21:23.706Z,5.50
2022-11-29T12:24:33.138Z,5.49
2022-11-29T12:27:34.536Z,5.50
2022-11-29T12:30:35.885Z,5.56
2022-11-29T12:33:40.308Z,5.51
2022-11-29T12:36:58.268Z,5.50
2022-11-29T12:40:05.875Z,5.50
2022-11-29T12:43:26.120Z,5.53
2022-11-29T12:46:27.949Z,5.57
2022-11-29T12:49:30.975Z,5.57
2022-11-29T12:52:32.320Z,5.63
2022-11-29T12:55:36.405Z,5.62
2022-11-29T12:58:45.814Z,5.67
2022-11-29T13:01:51.218Z,5.74
2022-11-29T13:05:01.514Z,5.64
2022-11-29T13:08:21.425Z,5.65
2022-11-29T13:11:22.764Z,5.72
2022-11-29T13:14:44.034Z,5.71
2022-11-29T13:17:48.796Z,5.76
2022-11-29T13:20:56.389Z,5.81
2022-11-29T13:24:10.039Z,5.68
2022-11-29T13:27:31.139Z,5.75
2022-11-29T13:30:33.620Z,5.67
2022-11-29T13:33:47.839Z,5.69
2022-11-29T13:36:56.682Z,5.67
2022-11-29T13:39:58.158Z,5.66
2022-11-29T13:43:02.928Z,5.61
2022-11-29T13:46:10.422Z,5.63
2022-11-29T13:49:32.088Z,5.59
2022-11-29T13:52:33.484Z,5.60
2022-11-29T13:55:34.868Z,5.60
2022-11-29T13:58:37.252Z,5.61
2022-11-29T14:01:45.537Z,5.58
2022-11-29T14:04:47.839Z,5.59
2022-11-29T14:08:08.247Z,5.60
2022-11-29T14:11:12.737Z,5.57
2022-11-29T14:14:17.180Z,5.59
2022-11-29T14:17:54.397Z,5.58
2022-11-29T14:20:56.346Z,5.61
2022-11-29T14:24:19.566Z,5.54
2022-11-29T14:27:21.065Z,5.60
2022-11-29T14:30:29.373Z,5.61
2022-11-29T14:33:37.516Z,5.61
2022-11-29T14:36:41.844Z,5.61
2022-11-29T14:39:47.033Z,5.56
2022-11-29T14:43:00.744Z,5.56
2022-11-29T14:46:11.472Z,5.53
2022-11-29T14:49:25.520Z,5.53
2022-11-29T14:52:50.132Z,5.50
2022-11-29T14:55:51.528Z,5.52
2022-11-29T14:59:11.753Z,5.55
2022-11-29T15:02:16.730Z,5.48
2022-11-29T15:05:19.595Z,5.48
2022-11-29T15:08:26.937Z,5.47
2022-11-29T15:11:36.757Z,5.45
2022-11-29T15:15:10.903Z,5.46
2022-11-29T15:18:24.315Z,5.47
2022-11-29T15:21:44.240Z,5.48
2022-11-29T15:25:02.451Z,5.48
2022-11-29T15:28:05.747Z,5.48
2022-11-29T15:31:11.082Z,5.44
2022-11-29T15:34:32.776Z,5.43
2022-11-29T15:37:34.094Z,5.40
2022-11-29T15:40:37.168Z,5.40
2022-11-29T15:43:38.818Z,5.41
2022-11-29T15:46:40.402Z,5.39
2022-11-29T15:49:41.892Z,5.39
2022-11-29T15:52:43.304Z,5.36
2022-11-29T15:55:44.725Z,5.35
2022-11-29T15:58:46.210Z,5.35
2022-11-29T16:01:48.116Z,5.37
2022-11-29T16:04:50.782Z,5.33
2022-11-29T16:07:54.266Z,5.33
2022-11-29T16:10:55.919Z,5.32
2022-11-29T16:14:19.893Z,5.32
2022-11-29T16:17:21.721Z,5.35
2022-11-29T16:20:26.404Z,5.31
2022-11-29T16:23:46.188Z,5.32
2022-11-29T16:26:47.943Z,5.30
2022-11-29T16:29:53.282Z,5.31
2022-11-29T16:32:58.732Z,5.33
2022-11-29T16:36:27.009Z,5.30
2022-11-29T16:39:28.815Z,5.31
2022-11-29T16:42:31.867Z,5.30
2022-11-29T16:45:37.325Z,5.33
2022-11-29T16:48:39.682Z,5.32
2022-11-29T16:51:49.205Z,5.31
2022-11-29T16:54:52.195Z,5.28
2022-11-29T16:57:53.744Z,5.32
2022-11-29T17:00:55.759Z,5.27
2022-11-29T17:03:57.755Z,5.26
2022-11-29T17:06:59.330Z,5.26
2022-11-29T17:10:06.529Z,5.25
2022-11-29T17:13:17.527Z,5.23
2022-11-29T17:16:19.872Z,5.25
2022-11-29T17:19:24.798Z,5.25
2022-11-29T17:22:30.177Z,5.24
2022-11-29T17:25:32.410Z,5.27
2022-11-29T17:28:34.348Z,5.24
2022-11-29T17:31:37.849Z,5.25
2022-11-29T17:34:39.245Z,5.28
2022-11-29T17:37:40.624Z,5.27
2022-11-29T17:40:42.026Z,5.27
2022-11-29T17:43:43.459Z,5.27
2022-11-29T17:46:44.940Z,5.24
2022-11-29T17:49:46.500Z,5.24
2022-11-29T17:52:48.072Z,5.24
2022-11-29T17:55:49.583Z,5.23
2022-11-29T17:58:51.784Z,5.17
2022-11-29T18:01:53.389Z,5.14
2022-11-29T18:04:55.202Z,5.18
2022-11-29T18:07:59.696Z,5.17
2022-11-29T18:11:04.791Z,5.17
2022-11-29T18:14:06.255Z,5.18
2022-11-29T18:17:07.812Z,5.16
2022-11-29T18:20:09.289Z,5.15
2022-11-29T18:23:10.707Z,5.18
2022-11-29T18:26:12.873Z,5.18
2022-11-29T18:29:14.414Z,5.16
2022-11-29T18:32:15.819Z,5.16
2022-11-29T18:35:17.182Z,5.13
2022-11-29T18:38:18.569Z,5.17
2022-11-29T18:41:20.863Z,5.15
2022-11-29T18:44:24.235Z,5.17
2022-11-29T18:47:25.695Z,5.18
2022-11-29T18:50:27.088Z,5.15
2022-11-29T18:53:28.474Z,5.14
2022-11-29T18:56:30.309Z,5.15
2022-11-29T18:59:31.777Z,5.14
2022-11-29T19:02:33.199Z,5.15
2022-11-29T19:05:34.591Z,5.17
2022-11-29T19:08:36.186Z,5.16
2022-11-29T19:11:37.581Z,5.15
2022-11-29T19:14:41.817Z,5.15
2022-11-29T19:17:46.529Z,5.12
2022-11-29T19:20:47.965Z,5.10
2022-11-29T19:23:53.452Z,5.12
2022-11-29T19:26:56.242Z,5.15
2022-11-29T19:29:57.641Z,5.12
2022-11-29T19:32:59.051Z,5.12
2022-11-29T19:36:07.336Z,5.11
2022-11-29T19:39:08.817Z,5.11
2022-11-29T19:42:10.409Z,5.11
2022-11-29T19:45:19.101Z,5.11
2022-11-29T19:48:20.898Z,5.11
2022-11-29T19:51:22.644Z,5.09
2022-11-29T19:54:24.048Z,5.08
2022-11-29T19:57:25.476Z,5.07
2022-11-29T20:00:28.208Z,5.08
2022-11-29T20:03:29.956Z,5.10
2022-11-29T20:06:31.455Z,5.07
2022-11-29T20:09:32.891Z,5.07
2022-11-29T20:12:34.374Z,5.09
2022-11-29T20:15:35.820Z,5.09
2022-11-29T20:18:37.869Z,5.09
2022-11-29T20:21:45.831Z,5.11
2022-11-29T20:24:47.300Z,5.12
2022-11-29T20:27:48.720Z,5.08
2022-11-29T20:30:50.160Z,5.06
2022-11-29T20:33:52.645Z,4.99
2022-11-29T20:37:09.845Z,5.01
2022-11-29T20:40:12.430Z,5.03
2022-11-29T20:43:16.270Z,5.03
2022-11-29T20:46:17.832Z,5.07
2022-11-29T20:49:19.393Z,5.06
2022-11-29T20:52:33.069Z,5.10
2022-11-29T20:55:42.451Z,5.07
2022-11-29T20:58:47.793Z,5.07
2022-11-29T21:01:49.288Z,5.06
2022-11-29T21:04:50.834Z,5.09
2022-11-29T21:07:52.287Z,5.06
2022-11-29T21:10:53.713Z,5.09
2022-11-29T21:13:55.297Z,5.09
2022-11-29T21:16:56.773Z,5.08
2022-11-29T21:19:58.271Z,5.05
2022-11-29T21:23:09.897Z,5.01
2022-11-29T21:26:13.707Z,5.03
2022-11-29T21:29:15.920Z,5.05
2022-11-29T21:32:19.530Z,5.01
2022-11-29T21:35:20.938Z,5.01
2022-11-29T21:38:22.372Z,5.00
2022-11-29T21:41:23.903Z,5.01
2022-11-29T21:44:25.358Z,5.02
2022-11-29T21:47:26.740Z,5.01
2022-11-29T21:50:28.099Z,5.01
2022-11-29T21:53:29.468Z,5.00
2022-11-29T21:56:30.843Z,5.01
2022-11-29T21:59:32.549Z,5.05
2022-11-29T22:02:34.085Z,5.06
2022-11-29T22:05:35.527Z,5.07
2022-11-29T22:08:38.932Z,5.08
2022-11-29T22:11:40.422Z,5.11
2022-11-29T22:14:41.823Z,5.09
2022-11-29T22:17:43.243Z,5.11
2022-11-29T22:20:47.174Z,5.08
2022-11-29T22:23:48.577Z,5.12
2022-11-29T22:26:50.072Z,5.12
2022-11-29T22:29:51.466Z,5.11
2022-11-29T22:32:52.847Z,5.08
2022-11-29T22:35:54.247Z,5.08
2022-11-29T22:38:55.774Z,5.09
2022-11-29T22:41:57.185Z,5.07
2022-11-29T22:44:58.609Z,5.05
2022-11-29T22:48:00.017Z,5.07
2022-11-29T22:51:10.916Z,5.06
2022-11-29T22:54:15.400Z,5.10
2022-11-29T22:57:16.983Z,5.10
2022-11-29T23:00:18.439Z,5.09
2022-11-29T23:03:19.909Z,5.07
2022-11-29T23:06:22.511Z,5.10
2022-11-29T23:09:24.024Z,5.07
2022-11-29T23:12:25.436Z,5.08
2022-11-29T23:15:26.834Z,5.08
2022-11-29T23:18:28.307Z,5.08
2022-11-29T23:21:30.771Z,5.06
2022-11-29T23:24:32.245Z,5.07
2022-11-29T23:27:33.603Z,5.06
2022-11-29T23:30:34.963Z,5.08
2022-11-29T23:33:36.355Z,5.10
2022-11-29T23:36:37.741Z,5.08
2022-11-29T23:39:39.111Z,5.08
2022-11-29T23:42:43.616Z,5.06
2022-11-29T23:45:47.879Z,5.04
2022-11-29T23:48:49.349Z,5.04
2022-11-29T23:51:50.734Z,5.05
2022-11-29T23:54:52.152Z,5.06
2022-11-29T23:57:53.552Z,5.05
